createdAt,value
2019-03-12T00:02:05.409Z,101039.58
2019-03-12T00:04:32.782Z,101035.22
2019-03-12T00:07:00.222Z,101043.31
2019-03-12T00:09:27.724Z,101042.23
2019-03-12T00:11:55.117Z,101033.50
2019-03-12T00:14:22.497Z,101037.16
2019-03-12T00:16:49.973Z,101031.88
2019-03-12T00:19:17.415Z,101029.69
2019-03-12T00:21:45.147Z,101027.92
2019-03-12T00:24:15.077Z,101031.13
2019-03-12T00:26:42.544Z,101043.22
2019-03-12T00:29:09.987Z,101035.09
2019-03-12T00:31:37.467Z,101033.00
2019-03-12T00:34:04.843Z,101036.73
2019-03-12T00:36:32.272Z,101037.80
2019-03-12T00:38:59.682Z,101043.50
2019-03-12T00:41:27.197Z,101045.64
2019-03-12T00:43:54.582Z,101046.98
2019-03-12T00:46:22.042Z,101044.97
2019-03-12T00:48:49.406Z,101042.76
2019-03-12T00:51:16.868Z,101045.59
2019-03-12T00:53:44.247Z,101046.80
2019-03-12T00:56:11.677Z,101050.98
2019-03-12T00:58:39.037Z,101057.34
2019-03-12T01:01:06.492Z,101059.48
2019-03-12T01:03:33.892Z,101058.65
2019-03-12T01:06:01.287Z,101054.28
2019-03-12T01:08:28.737Z,101057.40
2019-03-12T01:10:57.654Z,101056.05
2019-03-12T01:13:25.089Z,101060.19
2019-03-12T01:15:52.562Z,101063.34
2019-03-12T01:18:19.997Z,101061.02
2019-03-12T01:20:47.353Z,101066.12
2019-03-12T01:23:14.867Z,101057.20
2019-03-12T01:25:42.252Z,101051.48
2019-03-12T01:28:09.707Z,101056.28
2019-03-12T01:30:37.068Z,101053.02
2019-03-12T01:33:04.493Z,101058.88
2019-03-12T01:35:31.927Z,101049.25
2019-03-12T01:37:59.357Z,101050.11
2019-03-12T01:40:26.779Z,101049.81
2019-03-12T01:42:54.239Z,101043.83
2019-03-12T01:45:21.652Z,101035.00
2019-03-12T01:47:49.088Z,101034.35
2019-03-12T01:50:16.446Z,101035.66
2019-03-12T01:52:43.867Z,101041.15
2019-03-12T01:55:11.373Z,101047.19
2019-03-12T01:57:38.882Z,101041.02
2019-03-12T02:00:07.884Z,101038.55
2019-03-12T02:02:35.307Z,101038.92
2019-03-12T02:05:02.685Z,101037.52
2019-03-12T02:07:30.115Z,101031.39
2019-03-12T02:09:57.547Z,101030.69
2019-03-12T02:12:25.037Z,101027.77
2019-03-12T02:14:52.418Z,101021.40
2019-03-12T02:17:19.829Z,101022.18
2019-03-12T02:19:47.167Z,101013.13
2019-03-12T02:22:14.598Z,101014.23
2019-03-12T02:24:52.063Z,101003.27
2019-03-12T02:27:11.272Z,100997.19
2019-03-12T02:29:38.627Z,100997.33
2019-03-12T02:32:07.065Z,100995.27
2019-03-12T02:34:34.515Z,100994.16
2019-03-12T02:37:02.187Z,100989.98
2019-03-12T02:39:29.634Z,100986.80
2019-03-12T02:41:57.056Z,100984.25
2019-03-12T02:44:24.522Z,100984.72
2019-03-12T02:46:51.918Z,100985.82
2019-03-12T02:49:19.359Z,100985.90
2019-03-12T02:51:46.739Z,100986.13
2019-03-12T02:54:14.173Z,100984.58
2019-03-12T02:56:44.453Z,100989.50
2019-03-12T02:59:11.935Z,100984.84
2019-03-12T03:01:39.383Z,100982.67
2019-03-12T03:04:06.828Z,100982.87
2019-03-12T03:06:40.612Z,100981.17
2019-03-12T03:09:08.032Z,100982.47
2019-03-12T03:11:35.408Z,100976.28
2019-03-12T03:14:02.812Z,100973.13
2019-03-12T03:16:30.189Z,100966.76
2019-03-12T03:18:57.578Z,100967.14
2019-03-12T03:21:24.958Z,100976.16
2019-03-12T03:23:52.419Z,100982.23
2019-03-12T03:26:19.887Z,100978.42
2019-03-12T03:28:47.338Z,100976.33
2019-03-12T03:31:14.729Z,100970.72
2019-03-12T03:33:42.254Z,100977.88
2019-03-12T03:36:09.691Z,100958.70
2019-03-12T03:38:37.110Z,100951.50
2019-03-12T03:41:04.644Z,100953.76
2019-03-12T03:43:32.078Z,100957.23
2019-03-12T03:45:59.475Z,100954.14
2019-03-12T03:48:26.955Z,100958.11
2019-03-12T03:50:54.409Z,100955.18
2019-03-12T03:53:21.816Z,100948.36
2019-03-12T03:55:49.196Z,100955.47
2019-03-12T03:58:16.617Z,100944.25
2019-03-12T04:00:44.024Z,100939.11
2019-03-12T04:03:11.471Z,100941.37
2019-03-12T04:05:38.889Z,100938.44
2019-03-12T04:08:06.387Z,100940.36
2019-03-12T04:10:33.777Z,100940.48
2019-03-12T04:13:01.149Z,100941.40
2019-03-12T04:15:28.642Z,100940.61
2019-03-12T04:17:56.055Z,100948.34
2019-03-12T04:20:23.478Z,100944.45
2019-03-12T04:22:50.849Z,100944.02
2019-03-12T04:25:18.305Z,100941.97
2019-03-12T04:27:45.722Z,100938.04
2019-03-12T04:30:13.393Z,100945.36
2019-03-12T04:32:40.763Z,100940.80
2019-03-12T04:35:09.514Z,100932.52
2019-03-12T04:37:36.872Z,100939.00
2019-03-12T04:40:04.988Z,100929.92
2019-03-12T04:42:32.407Z,100933.81
2019-03-12T04:44:59.857Z,100935.11
2019-03-12T04:47:27.267Z,100931.89
2019-03-12T04:49:54.668Z,100925.45
2019-03-12T04:52:22.027Z,100937.08
2019-03-12T04:54:49.477Z,100927.20
2019-03-12T04:57:16.806Z,100927.41
2019-03-12T04:59:44.215Z,100922.23
2019-03-12T05:02:11.587Z,100913.64
2019-03-12T05:04:38.977Z,100907.54
2019-03-12T05:07:06.367Z,100904.31
2019-03-12T05:09:34.168Z,100896.98
2019-03-12T05:12:01.802Z,100891.80
2019-03-12T05:14:32.827Z,100887.06
2019-03-12T05:17:08.829Z,100890.37
2019-03-12T05:19:37.957Z,100882.33
2019-03-12T05:22:08.166Z,100882.00
2019-03-12T05:24:35.646Z,100875.25
2019-03-12T05:27:03.047Z,100876.22
2019-03-12T05:29:30.491Z,100876.55
2019-03-12T05:31:57.872Z,100872.15
2019-03-12T05:34:25.340Z,100870.06
2019-03-12T05:36:52.817Z,100866.17
2019-03-12T05:39:20.238Z,100867.59
2019-03-12T05:41:47.652Z,100865.53
2019-03-12T05:44:15.021Z,100865.45
2019-03-12T05:46:42.447Z,100856.39
2019-03-12T05:49:09.858Z,100858.02
2019-03-12T05:51:37.307Z,100849.12
2019-03-12T05:54:04.751Z,100841.14
2019-03-12T05:56:32.347Z,100837.70
2019-03-12T05:58:59.952Z,100827.90
2019-03-12T06:01:27.665Z,100815.56
2019-03-12T06:03:55.228Z,100814.53
2019-03-12T06:06:22.764Z,100810.77
2019-03-12T06:08:50.251Z,100812.64
2019-03-12T06:11:17.843Z,100811.86
2019-03-12T06:13:45.290Z,100819.00
2019-03-12T06:16:12.726Z,100815.38
2019-03-12T06:18:40.241Z,100795.95
2019-03-12T06:21:19.066Z,100794.80
2019-03-12T06:23:56.222Z,100780.43
2019-03-12T06:26:25.701Z,100784.51
2019-03-12T06:28:53.262Z,100771.93
2019-03-12T06:31:30.732Z,100760.16
2019-03-12T06:34:06.000Z,100768.91
2019-03-12T06:36:58.532Z,100770.20
2019-03-12T06:39:45.483Z,100764.86
2019-03-12T06:42:34.827Z,100757.92
2019-03-12T06:45:13.747Z,100758.42
2019-03-12T06:48:09.087Z,100751.20
2019-03-12T06:50:59.196Z,100746.89
2019-03-12T06:53:58.283Z,100742.27
2019-03-12T06:56:48.037Z,100745.47
2019-03-12T06:59:29.052Z,100737.56
2019-03-12T07:02:18.872Z,100737.61
2019-03-12T07:05:18.555Z,100740.23
2019-03-12T07:08:21.172Z,100734.28
2019-03-12T07:11:11.634Z,100717.89
2019-03-12T07:13:48.096Z,100709.95
2019-03-12T07:16:41.068Z,100704.84
2019-03-12T07:19:28.033Z,100703.60
2019-03-12T07:22:13.610Z,100705.45
2019-03-12T07:25:19.044Z,100694.83
2019-03-12T07:28:18.181Z,100681.55
2019-03-12T07:31:24.766Z,100675.47
2019-03-12T07:34:22.402Z,100670.45
2019-03-12T07:37:13.171Z,100648.86
2019-03-12T07:40:01.502Z,100659.27
2019-03-12T07:42:47.203Z,100646.48
2019-03-12T07:45:24.252Z,100646.59
2019-03-12T07:48:23.202Z,100647.09
2019-03-12T07:51:07.342Z,100637.44
2019-03-12T07:54:03.123Z,100644.08
2019-03-12T07:56:56.257Z,100629.84
2019-03-12T07:59:39.443Z,100640.74
2019-03-12T08:02:18.303Z,100632.55
2019-03-12T08:05:04.091Z,100627.16
2019-03-12T08:07:53.743Z,100624.56
2019-03-12T08:10:33.810Z,100621.16
2019-03-12T08:13:15.760Z,100603.44
2019-03-12T08:16:06.496Z,100603.75
2019-03-12T08:18:58.512Z,100603.75
2019-03-12T08:22:00.699Z,100599.09
2019-03-12T08:24:36.675Z,100588.27
2019-03-12T08:27:27.812Z,100583.00
2019-03-12T08:30:09.371Z,100576.53
2019-03-12T08:32:54.902Z,100578.77
2019-03-12T08:35:54.242Z,100566.36
2019-03-12T08:38:46.452Z,100562.27
2019-03-12T08:41:42.503Z,100553.02
2019-03-12T08:44:37.462Z,100554.61
2019-03-12T08:47:12.775Z,100568.24
2019-03-12T08:50:07.587Z,100559.91
2019-03-12T08:52:53.435Z,100547.61
2019-03-12T08:55:48.078Z,100552.60
2019-03-12T08:58:35.418Z,100550.10
2019-03-12T09:01:20.898Z,100546.66
2019-03-12T09:04:14.090Z,100539.13
2019-03-12T09:06:47.415Z,100534.06
2019-03-12T09:09:24.956Z,100537.14
2019-03-12T09:11:57.533Z,100520.56
2019-03-12T09:14:50.915Z,100519.19
2019-03-12T09:17:36.635Z,100507.45
2019-03-12T09:20:42.796Z,100504.00
2019-03-12T09:23:30.736Z,100501.32
2019-03-12T09:26:08.909Z,100490.39
2019-03-12T09:29:01.796Z,100481.94
2019-03-12T09:31:50.975Z,100477.61
2019-03-12T09:34:36.583Z,100468.25
2019-03-12T09:37:32.317Z,100480.96
2019-03-12T09:40:25.940Z,100467.55
2019-03-12T09:43:12.789Z,100457.52
2019-03-12T09:46:13.675Z,100453.48
2019-03-12T09:49:01.558Z,100441.91
2019-03-12T09:51:56.135Z,100446.19
2019-03-12T09:54:49.195Z,100427.50
2019-03-12T09:57:42.115Z,100416.47
2019-03-12T10:00:29.195Z,100432.84
2019-03-12T10:03:08.535Z,100424.24
2019-03-12T10:06:04.615Z,100404.38
2019-03-12T10:08:45.076Z,100399.31
2019-03-12T10:11:31.015Z,100382.52
2019-03-12T10:14:24.939Z,100373.34
2019-03-12T10:17:09.234Z,100362.25
2019-03-12T10:19:51.196Z,100346.20
2019-03-12T10:22:38.616Z,100333.69
2019-03-12T10:25:32.195Z,100337.14
2019-03-12T10:28:23.076Z,100315.51
2019-03-12T10:31:10.335Z,100294.00
2019-03-12T10:34:28.791Z,100268.61
2019-03-12T10:37:12.112Z,100270.89
2019-03-12T10:40:23.270Z,100278.18
2019-03-12T10:43:19.795Z,100253.00
2019-03-12T10:46:16.391Z,100251.72
2019-03-12T10:48:52.879Z,100243.94
2019-03-12T10:51:21.114Z,100240.44
2019-03-12T10:53:49.313Z,100226.66
2019-03-12T10:56:19.595Z,100228.09
2019-03-12T10:58:53.214Z,100228.23
2019-03-12T11:01:32.414Z,100219.53
2019-03-12T11:04:01.916Z,100200.95
2019-03-12T11:06:29.915Z,100206.86
2019-03-12T11:09:05.461Z,100193.31
2019-03-12T11:11:36.698Z,100200.43
2019-03-12T11:14:10.484Z,100181.17
2019-03-12T11:16:39.395Z,100170.45
2019-03-12T11:19:08.294Z,100168.44
2019-03-12T11:22:18.671Z,100167.19
2019-03-12T11:25:27.253Z,100145.00
2019-03-12T11:28:11.315Z,100146.27
2019-03-12T11:30:47.355Z,100161.38
2019-03-12T11:33:17.631Z,100139.69
2019-03-12T11:35:48.476Z,100152.62
2019-03-12T11:38:26.433Z,100132.47
2019-03-12T11:40:55.444Z,100120.31
2019-03-12T11:43:33.310Z,100123.07
2019-03-12T11:46:00.823Z,100119.25
2019-03-12T11:48:34.312Z,100116.38
2019-03-12T11:51:13.732Z,100103.52
2019-03-12T11:53:41.455Z,100107.19
2019-03-12T11:56:11.496Z,100103.66
2019-03-12T11:58:40.201Z,100093.42
2019-03-12T12:01:09.810Z,100098.67
2019-03-12T12:03:43.354Z,100076.74
2019-03-12T12:06:11.315Z,100074.60
2019-03-12T12:08:58.435Z,100077.39
2019-03-12T12:11:27.135Z,100032.45
2019-03-12T12:14:01.257Z,100046.86
2019-03-12T12:16:36.972Z,100044.95
2019-03-12T12:19:38.566Z,100021.72
2019-03-12T12:22:44.725Z,99980.16
2019-03-12T12:25:35.356Z,100008.39
2019-03-12T12:28:03.351Z,99994.45
2019-03-12T12:31:10.434Z,99973.97
2019-03-12T12:34:18.734Z,99944.22
2019-03-12T12:37:26.140Z,99961.45
2019-03-12T12:41:38.736Z,99956.36
2019-03-12T12:43:10.256Z,99935.25
2019-03-12T12:46:25.354Z,99916.22
2019-03-12T12:49:19.834Z,99923.70
2019-03-12T12:52:10.674Z,99909.06
2019-03-12T12:54:42.651Z,99889.30
2019-03-12T12:57:16.834Z,99880.94
2019-03-12T12:59:46.075Z,99855.34
2019-03-12T13:02:23.756Z,99880.10
2019-03-12T13:05:25.275Z,99855.16
2019-03-12T13:08:09.798Z,99781.70
2019-03-12T13:14:57.774Z,99849.16
2019-03-12T13:17:06.010Z,99837.38
2019-03-12T13:19:45.365Z,99827.00
2019-03-12T13:22:53.976Z,99801.25
2019-03-12T13:25:05.315Z,99803.81
2019-03-12T13:27:42.182Z,99807.91
2019-03-12T13:30:21.139Z,99796.00
2019-03-12T13:33:18.323Z,99784.20
2019-03-12T13:36:39.099Z,99789.63
2019-03-12T13:38:26.863Z,99773.83
2019-03-12T13:59:22.450Z,99703.19
2019-03-12T14:21:32.659Z,99654.54
2019-03-12T14:56:24.805Z,99519.04
2019-03-12T15:00:01.149Z,99514.39
2019-03-12T15:11:00.036Z,99487.63
2019-03-12T15:13:59.617Z,99466.70
2019-03-12T15:21:02.047Z,99446.14
2019-03-12T15:24:23.108Z,99433.73
2019-03-12T15:26:27.144Z,99468.30
2019-03-12T15:26:58.055Z,99422.95
2019-03-12T15:29:31.525Z,99408.98
2019-03-12T15:32:26.046Z,99397.27
2019-03-12T15:38:47.815Z,99386.59
2019-03-12T15:49:33.952Z,99350.02
2019-03-12T16:12:53.844Z,99281.64
2019-03-12T16:19:53.565Z,99260.59
2019-03-12T16:54:36.613Z,99124.00
2019-03-12T16:57:04.476Z,99122.28
2019-03-12T16:59:38.300Z,99112.96
2019-03-12T17:05:05.809Z,99105.06
2019-03-12T17:11:13.849Z,99084.11
2019-03-12T17:14:38.899Z,99081.98
2019-03-12T17:18:00.969Z,99077.37
2019-03-12T17:21:39.566Z,99053.38
2019-03-12T17:24:33.794Z,99064.60
2019-03-12T17:27:51.696Z,99038.13
2019-03-12T17:31:00.892Z,99011.67
2019-03-12T17:34:12.751Z,99012.63
2019-03-12T17:37:16.757Z,99013.12
2019-03-12T17:40:10.940Z,98989.34
2019-03-12T17:43:23.358Z,98972.48
2019-03-12T17:46:39.634Z,98920.64
2019-03-12T17:50:16.314Z,98923.75
2019-03-12T17:53:09.051Z,98953.08
2019-03-12T17:56:27.178Z,98922.34
2019-03-12T18:02:41.520Z,98934.05
2019-03-12T18:05:54.972Z,98931.10
2019-03-12T18:08:25.926Z,98902.48
2019-03-12T18:11:32.245Z,98900.36
2019-03-12T18:14:47.357Z,98879.09
2019-03-12T18:25:26.589Z,98872.98
2019-03-12T18:28:35.611Z,98838.48
2019-03-12T18:31:32.086Z,98838.98
2019-03-12T18:34:25.693Z,98830.38
2019-03-12T18:37:19.441Z,98838.25
2019-03-12T18:40:58.490Z,98821.70
2019-03-12T18:43:26.561Z,98832.63
2019-03-12T18:46:15.342Z,98813.03
2019-03-12T18:48:53.411Z,98813.59
2019-03-12T18:51:21.246Z,98789.84
2019-03-12T18:53:49.161Z,98791.51
2019-03-12T18:56:17.091Z,98790.69
2019-03-12T18:58:45.257Z,98778.05
2019-03-12T19:01:17.430Z,98774.48
2019-03-12T19:03:45.461Z,98767.30
2019-03-12T19:06:13.471Z,98757.19
2019-03-12T19:08:47.485Z,98750.69
2019-03-12T19:11:11.711Z,98737.27
2019-03-12T19:13:40.601Z,98726.94
2019-03-12T19:16:08.567Z,98719.12
2019-03-12T19:18:36.591Z,98717.34
2019-03-12T19:21:04.536Z,98709.52
2019-03-12T19:23:33.751Z,98702.16
2019-03-12T19:26:01.612Z,98683.80
2019-03-12T19:28:29.877Z,98704.17
2019-03-12T19:31:13.882Z,98699.74
2019-03-12T19:33:43.522Z,98704.34
2019-03-12T19:36:11.521Z,98697.65
2019-03-12T19:38:39.621Z,98702.08
2019-03-12T19:41:07.761Z,98697.33
2019-03-12T19:43:36.117Z,98697.50
2019-03-12T19:46:04.371Z,98696.69
2019-03-12T19:48:32.239Z,98686.05
2019-03-12T19:51:00.093Z,98683.74
2019-03-12T19:53:28.067Z,98656.84
2019-03-12T19:55:56.093Z,98632.73
2019-03-12T19:58:28.204Z,98624.56
2019-03-12T20:00:55.986Z,98626.84
2019-03-12T20:03:24.216Z,98621.61
2019-03-12T20:05:52.177Z,98610.15
2019-03-12T20:08:20.151Z,98601.13
2019-03-12T20:11:17.507Z,98593.25
2019-03-12T20:14:34.217Z,98600.45
2019-03-12T20:18:04.486Z,98601.61
2019-03-12T20:21:24.011Z,98577.84
2019-03-12T20:24:36.269Z,98591.29
2019-03-12T20:27:32.551Z,98570.30
2019-03-12T20:30:36.287Z,98591.94
2019-03-12T20:33:31.131Z,98604.56
2019-03-12T20:36:54.573Z,98607.19
2019-03-12T20:39:59.159Z,98617.16
2019-03-12T20:43:20.176Z,98604.02
2019-03-12T20:46:37.187Z,98601.08
2019-03-12T20:49:45.146Z,98603.03
2019-03-12T20:52:57.489Z,98596.48
2019-03-12T20:56:00.961Z,98583.39
2019-03-12T20:59:06.578Z,98582.11
2019-03-12T21:02:10.451Z,98586.71
2019-03-12T21:05:23.600Z,98568.66
2019-03-12T21:08:44.331Z,98580.15
2019-03-12T21:12:11.291Z,98572.59
2019-03-12T21:15:20.496Z,98589.33
2019-03-12T21:18:50.656Z,98564.09
2019-03-12T21:22:03.128Z,98578.52
2019-03-12T21:24:56.494Z,98598.37
2019-03-12T21:28:04.391Z,98621.13
2019-03-12T21:30:32.251Z,98633.86
2019-03-12T21:33:01.080Z,98642.98
2019-03-12T21:35:29.011Z,98650.95
2019-03-12T21:37:56.817Z,98642.60
2019-03-12T21:40:24.699Z,98635.09
2019-03-12T21:42:52.401Z,98611.28
2019-03-12T21:45:20.331Z,98625.48
2019-03-12T21:47:48.130Z,98632.31
2019-03-12T21:50:16.036Z,98624.28
2019-03-12T21:52:45.708Z,98617.52
2019-03-12T21:55:13.647Z,98616.66
2019-03-12T21:57:41.271Z,98593.89
2019-03-12T22:00:12.071Z,98602.58
2019-03-12T22:02:39.506Z,98605.20
2019-03-12T22:05:07.191Z,98607.31
2019-03-12T22:07:34.690Z,98600.09
2019-03-12T22:10:02.187Z,98591.42
2019-03-12T22:12:32.793Z,98571.27
2019-03-12T22:15:02.756Z,98565.55
2019-03-12T22:17:30.221Z,98555.38
2019-03-12T22:19:57.616Z,98554.92
2019-03-12T22:22:38.496Z,98550.96
2019-03-12T22:25:07.731Z,98572.91
2019-03-12T22:27:35.155Z,98581.12
2019-03-12T22:30:04.290Z,98574.25
2019-03-12T22:32:31.806Z,98586.67
2019-03-12T22:34:59.247Z,98621.08
2019-03-12T22:37:26.671Z,98638.07
2019-03-12T22:39:54.089Z,98678.92
2019-03-12T22:42:21.556Z,98702.78
2019-03-12T22:44:48.956Z,98702.38
2019-03-12T22:47:16.430Z,98735.16
2019-03-12T22:49:46.361Z,98744.46
2019-03-12T22:52:13.811Z,98761.08
2019-03-12T22:54:43.698Z,98764.96
2019-03-12T22:57:12.564Z,98774.80
2019-03-12T22:59:40.046Z,98795.86
2019-03-12T23:02:07.702Z,98806.58
2019-03-12T23:04:37.818Z,98810.80
2019-03-12T23:07:06.331Z,98831.09
2019-03-12T23:09:33.836Z,98848.80
2019-03-12T23:12:01.438Z,98849.06
2019-03-12T23:14:29.996Z,98857.27
2019-03-12T23:16:57.647Z,98852.92
2019-03-12T23:19:25.324Z,98875.61
